createdAt,value
2022-11-29T00:03:30.980Z,273.43
2022-11-29T00:06:04.561Z,421.75
2022-11-29T00:08:32.218Z,499.20
2022-11-29T00:11:06.116Z,429.77
2022-11-29T00:13:32.773Z,382.70
2022-11-29T00:16:03.702Z,416.17
2022-11-29T00:18:31.547Z,452.80
2022-11-29T00:20:59.250Z,543.20
2022-11-29T00:23:27.062Z,227.20
2022-11-29T00:25:54.642Z,365.03
2022-11-29T00:28:23.588Z,343.13
2022-11-29T00:30:51.256Z,532.83
2022-11-29T00:33:18.956Z,514.60
2022-11-29T00:35:46.473Z,362.27
2022-11-29T00:38:14.056Z,582.47
2022-11-29T00:40:41.640Z,384.30
2022-11-29T00:43:09.291Z,399.63
2022-11-29T00:45:38.266Z,294.20
2022-11-29T00:48:06.151Z,353.83
2022-11-29T00:50:33.725Z,552.60
2022-11-29T00:53:01.375Z,355.30
2022-11-29T00:55:29.018Z,384.60
2022-11-29T00:57:56.649Z,304.53
2022-11-29T01:00:24.340Z,460.27
2022-11-29T01:02:53.347Z,339.70
2022-11-29T01:05:20.925Z,435.70
2022-11-29T01:07:48.595Z,328.87
2022-11-29T01:10:16.251Z,291.97
2022-11-29T01:12:44.039Z,391.10
2022-11-29T01:15:12.188Z,321.30
2022-11-29T01:17:40.748Z,313.55
2022-11-29T01:20:12.740Z,418.58
2022-11-29T01:22:41.231Z,359.77
2022-11-29T01:25:09.995Z,295.33
2022-11-29T01:27:37.605Z,495.17
2022-11-29T01:30:05.747Z,307.07
2022-11-29T01:32:33.504Z,304.52
2022-11-29T01:35:01.278Z,462.47
2022-11-29T01:37:30.811Z,259.23
2022-11-29T01:39:58.517Z,357.00
2022-11-29T01:42:26.332Z,181.33
2022-11-29T01:45:14.579Z,494.93
2022-11-29T01:47:46.865Z,252.48
2022-11-29T01:50:15.203Z,249.27
2022-11-29T01:52:44.650Z,273.75
2022-11-29T01:55:12.571Z,478.27
2022-11-29T01:57:43.566Z,282.83
2022-11-29T02:00:14.122Z,350.47
2022-11-29T02:02:45.353Z,405.13
2022-11-29T02:05:15.820Z,513.73
2022-11-29T02:07:47.424Z,321.83
2022-11-29T02:10:16.596Z,624.17
2022-11-29T02:12:56.001Z,589.37
2022-11-29T02:15:35.071Z,465.57
2022-11-29T02:18:07.819Z,352.70
2022-11-29T02:21:12.359Z,410.93
2022-11-29T02:24:07.358Z,147.80
2022-11-29T02:27:03.554Z,623.60
2022-11-29T02:29:49.966Z,555.30
2022-11-29T02:33:05.025Z,176.77
2022-11-29T02:35:51.941Z,500.53
2022-11-29T02:38:31.393Z,447.97
2022-11-29T02:41:14.156Z,208.87
2022-11-29T02:43:59.372Z,540.90
2022-11-29T02:46:43.535Z,611.80
2022-11-29T02:49:20.767Z,239.90
2022-11-29T02:51:57.850Z,642.13
2022-11-29T02:54:30.809Z,486.70
2022-11-29T02:57:05.957Z,191.00
2022-11-29T02:59:46.412Z,475.90
2022-11-29T03:02:24.011Z,359.40
2022-11-29T03:04:59.833Z,739.17
2022-11-29T03:07:46.019Z,391.53
2022-11-29T03:10:24.454Z,449.83
2022-11-29T03:12:54.941Z,499.48
2022-11-29T03:15:30.174Z,463.70
2022-11-29T03:18:20.729Z,391.77
2022-11-29T03:21:04.356Z,356.87
2022-11-29T03:23:38.845Z,458.67
2022-11-29T03:26:10.044Z,451.23
2022-11-29T03:28:44.310Z,223.83
2022-11-29T03:31:17.212Z,355.77
2022-11-29T03:33:54.688Z,280.93
2022-11-29T03:36:35.096Z,305.23
2022-11-29T03:39:08.519Z,290.40
2022-11-29T03:41:41.290Z,295.23
2022-11-29T03:44:14.015Z,342.67
2022-11-29T03:46:48.886Z,467.87
2022-11-29T03:49:22.556Z,462.80
2022-11-29T03:52:01.688Z,510.07
2022-11-29T03:54:39.199Z,463.97
2022-11-29T03:57:07.667Z,586.60
2022-11-29T03:59:54.910Z,298.90
2022-11-29T04:03:02.924Z,569.03
2022-11-29T04:05:49.262Z,195.25
2022-11-29T04:08:51.243Z,432.97
2022-11-29T04:12:06.616Z,558.47
2022-11-29T04:15:12.787Z,724.33
2022-11-29T04:18:13.318Z,284.93
2022-11-29T04:21:01.559Z,384.67
2022-11-29T04:24:10.403Z,141.30
2022-11-29T04:27:05.217Z,363.23
2022-11-29T04:30:09.744Z,209.00
2022-11-29T04:33:21.016Z,345.13
2022-11-29T04:36:21.991Z,311.07
2022-11-29T04:39:16.353Z,315.77
2022-11-29T04:42:13.314Z,288.00
2022-11-29T04:45:04.770Z,99.17
2022-11-29T04:48:01.868Z,438.23
2022-11-29T04:50:45.157Z,312.97
2022-11-29T04:53:31.083Z,625.97
2022-11-29T04:56:10.086Z,367.40
2022-11-29T04:58:44.643Z,285.57
2022-11-29T05:01:24.386Z,453.37
2022-11-29T05:04:01.969Z,315.53
2022-11-29T05:06:38.329Z,342.03
2022-11-29T05:09:18.722Z,507.73
2022-11-29T05:11:58.756Z,512.17
2022-11-29T05:14:36.826Z,366.53
2022-11-29T05:17:31.700Z,290.58
2022-11-29T05:20:14.362Z,288.30
2022-11-29T05:22:54.041Z,449.70
2022-11-29T05:25:39.694Z,319.30
2022-11-29T05:28:16.149Z,524.70
2022-11-29T05:31:06.599Z,339.97
2022-11-29T05:33:54.481Z,268.20
2022-11-29T05:36:33.906Z,356.92
2022-11-29T05:39:17.662Z,484.80
2022-11-29T05:42:02.291Z,451.53
2022-11-29T05:44:35.057Z,493.93
2022-11-29T05:47:04.598Z,343.00
2022-11-29T05:49:42.188Z,311.10
2022-11-29T05:52:24.440Z,156.13
2022-11-29T05:55:10.713Z,294.97
2022-11-29T05:57:44.427Z,271.53
2022-11-29T06:00:14.656Z,141.20
2022-11-29T06:02:51.010Z,133.47
2022-11-29T06:05:28.309Z,267.73
2022-11-29T06:08:03.697Z,289.40
2022-11-29T06:10:34.860Z,333.43
2022-11-29T06:13:14.140Z,296.20
2022-11-29T06:15:58.735Z,258.10
2022-11-29T06:18:51.424Z,209.57
2022-11-29T06:21:27.464Z,225.97
2022-11-29T06:24:19.475Z,113.13
2022-11-29T06:27:12.329Z,419.93
2022-11-29T06:29:48.347Z,135.67
2022-11-29T06:32:25.400Z,213.60
2022-11-29T06:34:59.173Z,249.00
2022-11-29T06:37:32.404Z,110.03
2022-11-29T06:40:02.035Z,174.70
2022-11-29T06:42:29.706Z,222.07
2022-11-29T06:44:58.026Z,327.87
2022-11-29T06:47:30.110Z,363.20
2022-11-29T06:50:02.119Z,305.63
2022-11-29T06:52:38.667Z,349.27
2022-11-29T06:55:19.151Z,305.43
2022-11-29T06:58:04.753Z,323.53
2022-11-29T07:00:42.686Z,257.10
2022-11-29T07:03:28.680Z,342.40
2022-11-29T07:05:57.999Z,269.47
2022-11-29T07:08:26.330Z,305.67
2022-11-29T07:10:56.182Z,117.05
2022-11-29T07:13:24.372Z,193.73
2022-11-29T07:16:04.830Z,256.02
2022-11-29T07:18:39.967Z,257.93
2022-11-29T07:21:19.169Z,157.30
2022-11-29T07:23:57.963Z,285.90
2022-11-29T07:29:10.916Z,83.50
2022-11-29T07:31:55.879Z,261.43
2022-11-29T07:34:36.546Z,311.13
2022-11-29T07:37:12.340Z,130.03
2022-11-29T07:39:50.487Z,123.30
2022-11-29T07:42:30.393Z,133.15
2022-11-29T07:45:07.490Z,156.90
2022-11-29T07:47:36.325Z,124.70
2022-11-29T07:50:05.051Z,83.53
2022-11-29T07:52:34.676Z,229.63
2022-11-29T07:55:03.798Z,165.43
2022-11-29T07:57:34.002Z,180.53
2022-11-29T08:00:02.650Z,122.67
2022-11-29T08:02:32.127Z,233.90
2022-11-29T08:05:01.981Z,211.13
2022-11-29T08:07:30.736Z,151.50
2022-11-29T08:12:26.891Z,176.45
2022-11-29T08:14:55.774Z,243.17
2022-11-29T08:19:50.845Z,199.13
2022-11-29T08:22:18.516Z,173.50
2022-11-29T08:24:46.514Z,151.00
2022-11-29T08:27:14.342Z,321.00
2022-11-29T08:29:41.900Z,196.43
2022-11-29T08:32:10.957Z,204.93
2022-11-29T08:34:38.586Z,153.03
2022-11-29T08:37:06.291Z,153.93
2022-11-29T08:39:33.861Z,258.07
2022-11-29T08:42:01.558Z,144.87
2022-11-29T08:44:29.297Z,267.07
2022-11-29T08:47:14.524Z,201.60
2022-11-29T08:49:57.336Z,175.17
2022-11-29T08:52:42.785Z,273.93
2022-11-29T08:55:10.835Z,103.27
2022-11-29T08:57:40.462Z,201.85
2022-11-29T09:00:09.683Z,256.83
2022-11-29T09:05:08.029Z,103.55
2022-11-29T09:07:36.097Z,136.00
2022-11-29T09:10:05.430Z,222.93
2022-11-29T09:12:33.682Z,156.17
2022-11-29T09:15:01.377Z,490.63
2022-11-29T09:17:28.926Z,299.80
2022-11-29T09:19:56.530Z,349.27
2022-11-29T09:22:25.507Z,135.67
2022-11-29T09:24:53.071Z,252.87
2022-11-29T09:27:20.669Z,164.93
2022-11-29T09:29:48.291Z,318.63
2022-11-29T09:32:15.903Z,103.57
2022-11-29T09:34:43.894Z,296.40
2022-11-29T09:37:11.620Z,321.58
2022-11-29T09:39:41.655Z,288.57
2022-11-29T09:42:23.417Z,401.73
2022-11-29T09:45:04.112Z,270.37
2022-11-29T09:47:44.917Z,182.07
2022-11-29T09:50:26.584Z,160.90
2022-11-29T09:53:19.071Z,153.37
2022-11-29T09:56:01.022Z,248.87
2022-11-29T09:58:32.816Z,209.87
2022-11-29T10:01:05.168Z,147.43
2022-11-29T10:03:36.516Z,158.67
2022-11-29T10:06:09.701Z,109.27
2022-11-29T10:08:42.540Z,243.43
2022-11-29T10:11:18.921Z,280.57
2022-11-29T10:13:49.978Z,58.00
2022-11-29T10:16:26.613Z,198.43
2022-11-29T10:19:00.966Z,148.93
2022-11-29T10:21:33.476Z,136.73
2022-11-29T10:24:05.450Z,170.00
2022-11-29T10:26:35.457Z,165.03
2022-11-29T10:29:03.390Z,77.10
2022-11-29T10:31:35.816Z,93.27
2022-11-29T10:34:13.457Z,107.73
2022-11-29T10:36:45.599Z,108.40
2022-11-29T10:39:17.709Z,153.60
2022-11-29T10:41:47.708Z,133.07
2022-11-29T10:44:16.013Z,94.90
2022-11-29T10:46:43.927Z,56.92
2022-11-29T10:49:15.956Z,61.60
2022-11-29T10:51:43.878Z,28.30
2022-11-29T10:54:29.495Z,44.78
2022-11-29T10:57:00.617Z,41.63
2022-11-29T10:59:30.561Z,40.23
2022-11-29T11:01:58.748Z,38.90
2022-11-29T11:04:30.054Z,42.33
2022-11-29T11:07:01.247Z,32.27
2022-11-29T11:09:34.923Z,83.20
2022-11-29T11:12:06.018Z,53.27
2022-11-29T11:14:37.437Z,26.83
2022-11-29T11:17:26.896Z,28.13
2022-11-29T11:20:00.771Z,30.67
2022-11-29T11:22:31.295Z,35.57
2022-11-29T11:25:01.686Z,32.87
2022-11-29T11:27:33.625Z,42.40
2022-11-29T11:30:02.547Z,27.90
2022-11-29T11:32:30.215Z,42.50
2022-11-29T11:34:59.426Z,31.37
2022-11-29T11:37:28.865Z,28.40
2022-11-29T11:39:58.737Z,26.67
2022-11-29T11:42:47.020Z,25.17
2022-11-29T11:45:30.962Z,49.13
2022-11-29T11:48:01.050Z,31.60
2022-11-29T11:50:32.553Z,28.50
2022-11-29T11:53:04.883Z,36.10
2022-11-29T11:55:37.527Z,30.93
2022-11-29T11:58:17.529Z,32.50
2022-11-29T12:01:06.030Z,25.17
2022-11-29T12:03:40.572Z,27.00
2022-11-29T12:06:28.322Z,24.07
2022-11-29T12:09:02.230Z,25.90
2022-11-29T12:11:35.074Z,27.07
2022-11-29T12:14:06.117Z,30.90
2022-11-29T12:16:38.954Z,36.97
2022-11-29T12:19:16.076Z,27.77
2022-11-29T12:21:48.521Z,30.87
2022-11-29T12:24:24.929Z,31.13
2022-11-29T12:26:57.593Z,26.43
2022-11-29T12:29:29.821Z,22.83
2022-11-29T12:32:12.372Z,20.27
2022-11-29T12:34:52.307Z,31.50
2022-11-29T12:37:26.751Z,30.57
2022-11-29T12:40:04.283Z,30.20
2022-11-29T12:42:45.881Z,26.90
2022-11-29T12:45:39.827Z,22.47
2022-11-29T12:48:20.752Z,21.90
2022-11-29T12:50:58.120Z,22.10
2022-11-29T12:53:50.092Z,25.77
2022-11-29T12:56:26.867Z,36.90
2022-11-29T12:59:10.586Z,29.63
2022-11-29T13:01:53.676Z,27.43
2022-11-29T13:04:36.229Z,33.43
2022-11-29T13:07:12.189Z,25.20
2022-11-29T13:10:01.248Z,24.40
2022-11-29T13:12:36.220Z,27.43
2022-11-29T13:15:09.865Z,25.90
2022-11-29T13:17:42.293Z,32.17
2022-11-29T13:20:29.654Z,27.03
2022-11-29T13:23:02.073Z,26.00
2022-11-29T13:25:34.620Z,30.43
2022-11-29T13:28:06.749Z,29.97
2022-11-29T13:30:36.029Z,33.00
2022-11-29T13:33:12.442Z,32.37
2022-11-29T13:35:48.024Z,35.03
2022-11-29T13:38:24.050Z,34.33
2022-11-29T13:40:59.091Z,35.20
2022-11-29T13:43:35.025Z,33.20
2022-11-29T13:46:15.752Z,29.07
2022-11-29T13:48:49.144Z,36.00
2022-11-29T13:51:30.921Z,32.23
2022-11-29T13:54:00.745Z,30.23
2022-11-29T13:56:42.798Z,29.57
2022-11-29T13:59:18.478Z,28.27
2022-11-29T14:01:51.379Z,32.37
2022-11-29T14:04:31.085Z,31.33
2022-11-29T14:07:12.396Z,31.97
2022-11-29T14:09:49.268Z,31.13
2022-11-29T14:12:30.997Z,33.70
2022-11-29T14:15:03.771Z,30.50
2022-11-29T14:17:47.432Z,33.40
2022-11-29T14:20:51.664Z,33.17
2022-11-29T14:23:42.267Z,35.80
2022-11-29T14:26:30.437Z,35.47
2022-11-29T14:28:59.608Z,33.63
2022-11-29T14:31:54.268Z,36.80
2022-11-29T14:34:33.968Z,46.87
2022-11-29T14:37:15.440Z,42.30
2022-11-29T14:39:47.885Z,74.60
2022-11-29T14:42:18.713Z,55.07
2022-11-29T14:44:55.205Z,53.77
2022-11-29T14:47:26.297Z,61.00
2022-11-29T14:49:56.059Z,106.37
2022-11-29T14:52:30.507Z,61.97
2022-11-29T14:55:02.668Z,63.70
2022-11-29T14:58:08.863Z,177.67
2022-11-29T15:00:43.299Z,68.53
2022-11-29T15:03:13.848Z,114.67
2022-11-29T15:05:44.181Z,71.97
2022-11-29T15:08:18.829Z,457.17
2022-11-29T15:10:51.133Z,381.13
2022-11-29T15:13:26.971Z,465.30
2022-11-29T15:16:13.804Z,396.43
2022-11-29T15:19:06.897Z,241.57
2022-11-29T15:21:43.730Z,510.70
2022-11-29T15:24:13.547Z,489.47
2022-11-29T15:26:55.898Z,176.83
2022-11-29T15:29:24.140Z,341.03
2022-11-29T15:31:55.108Z,245.75
2022-11-29T15:34:32.478Z,308.90
2022-11-29T15:37:00.808Z,468.20
2022-11-29T15:39:31.893Z,462.90
2022-11-29T15:42:11.225Z,645.77
2022-11-29T15:44:39.357Z,536.03
2022-11-29T15:47:17.852Z,673.72
2022-11-29T15:49:45.476Z,268.08
2022-11-29T15:52:20.931Z,288.70
2022-11-29T15:54:53.516Z,388.23
2022-11-29T15:57:27.375Z,277.57
2022-11-29T15:59:58.023Z,386.07
2022-11-29T16:02:28.889Z,261.43
2022-11-29T16:05:00.876Z,401.00
2022-11-29T16:07:32.273Z,371.03
2022-11-29T16:10:04.698Z,250.07
2022-11-29T16:12:33.739Z,304.60
2022-11-29T16:15:02.423Z,243.80
2022-11-29T16:17:32.588Z,213.30
2022-11-29T16:20:23.620Z,217.27
2022-11-29T16:23:11.456Z,230.03
2022-11-29T16:25:56.914Z,275.92
2022-11-29T16:28:30.468Z,117.80
2022-11-29T16:30:58.514Z,65.37
2022-11-29T16:33:26.151Z,87.18
2022-11-29T16:36:05.202Z,97.60
2022-11-29T16:38:33.110Z,59.43
2022-11-29T16:41:06.411Z,70.57
2022-11-29T16:43:53.428Z,95.70
2022-11-29T16:46:30.240Z,69.40
2022-11-29T16:49:00.807Z,65.00
2022-11-29T16:51:37.273Z,58.17
2022-11-29T16:54:23.127Z,65.70
2022-11-29T16:56:51.819Z,75.00
2022-11-29T16:59:27.465Z,61.78
2022-11-29T17:01:56.795Z,113.30
2022-11-29T17:06:53.705Z,64.40
2022-11-29T17:09:25.123Z,92.32
2022-11-29T17:11:53.230Z,55.73
2022-11-29T17:14:22.342Z,47.30
2022-11-29T17:16:50.390Z,56.13
2022-11-29T17:19:19.754Z,44.05
2022-11-29T17:21:47.577Z,45.37
2022-11-29T17:24:18.242Z,51.17
2022-11-29T17:26:47.016Z,39.17
2022-11-29T17:31:45.464Z,36.38
2022-11-29T17:34:13.123Z,41.33
2022-11-29T17:36:41.956Z,37.33
2022-11-29T17:41:37.139Z,40.10
2022-11-29T17:44:05.172Z,36.50
2022-11-29T17:46:34.427Z,32.38
2022-11-29T17:49:06.167Z,31.47
2022-11-29T17:51:52.362Z,35.77
2022-11-29T17:54:20.788Z,33.37
2022-11-29T17:56:48.571Z,32.37
2022-11-29T17:59:16.480Z,29.80
2022-11-29T18:01:46.829Z,35.17
2022-11-29T18:04:16.069Z,31.87
2022-11-29T18:06:43.806Z,31.37
2022-11-29T18:09:12.768Z,24.93
2022-11-29T18:11:47.453Z,23.87
2022-11-29T18:14:18.003Z,31.63
2022-11-29T18:16:46.153Z,30.80
2022-11-29T18:19:17.061Z,24.90
2022-11-29T18:21:45.209Z,26.57
2022-11-29T18:24:13.212Z,26.73
2022-11-29T18:26:41.288Z,30.02
2022-11-29T18:29:09.835Z,28.02
2022-11-29T18:31:39.121Z,22.90
2022-11-29T18:34:09.544Z,19.07
2022-11-29T18:36:42.806Z,23.23
2022-11-29T18:39:13.855Z,27.70
2022-11-29T18:41:43.036Z,24.83
2022-11-29T18:44:12.736Z,24.00
2022-11-29T18:46:42.986Z,20.83
2022-11-29T18:49:12.179Z,23.90
2022-11-29T18:51:42.970Z,24.63
2022-11-29T18:54:10.946Z,28.20
2022-11-29T18:56:39.555Z,27.73
2022-11-29T18:59:10.161Z,27.25
2022-11-29T19:01:41.098Z,23.80
2022-11-29T19:04:10.414Z,21.47
2022-11-29T19:06:39.901Z,20.93
2022-11-29T19:09:13.235Z,21.97
2022-11-29T19:11:41.458Z,21.27
2022-11-29T19:14:12.398Z,16.60
2022-11-29T19:16:41.919Z,23.43
2022-11-29T19:19:09.716Z,19.37
2022-11-29T19:21:39.547Z,22.07
2022-11-29T19:24:14.673Z,19.37
2022-11-29T19:26:44.409Z,20.93
2022-11-29T19:29:13.018Z,27.60
2022-11-29T19:31:40.718Z,27.05
2022-11-29T19:34:08.449Z,18.67
2022-11-29T19:36:37.292Z,21.27
2022-11-29T19:41:35.102Z,22.33
2022-11-29T19:44:04.722Z,20.97
2022-11-29T19:46:34.930Z,24.00
2022-11-29T19:49:03.384Z,21.77
2022-11-29T19:51:31.985Z,23.15
2022-11-29T19:54:02.001Z,19.23
2022-11-29T19:56:30.730Z,25.43
2022-11-29T19:59:00.716Z,23.60
2022-11-29T20:01:39.295Z,21.07
2022-11-29T20:04:08.418Z,18.33
2022-11-29T20:06:36.275Z,22.03
2022-11-29T20:09:04.390Z,25.65
2022-11-29T20:11:32.011Z,25.85
2022-11-29T20:14:02.318Z,21.83
2022-11-29T20:16:31.147Z,22.23
2022-11-29T20:21:28.506Z,19.17
2022-11-29T20:23:57.272Z,20.60
2022-11-29T20:28:52.427Z,16.73
2022-11-29T20:31:23.177Z,20.40
2022-11-29T20:33:53.506Z,17.80
2022-11-29T20:36:38.694Z,20.23
2022-11-29T20:39:18.252Z,14.97
2022-11-29T20:41:51.841Z,22.50
2022-11-29T20:44:22.777Z,17.87
2022-11-29T20:46:52.191Z,15.20
2022-11-29T20:49:20.214Z,16.50
2022-11-29T20:51:56.416Z,21.52
2022-11-29T20:54:24.114Z,16.73
2022-11-29T20:56:51.748Z,21.53
2022-11-29T20:59:19.294Z,23.63
2022-11-29T21:01:47.038Z,17.87
2022-11-29T21:04:21.626Z,22.00
2022-11-29T21:06:50.838Z,21.80
2022-11-29T21:09:18.422Z,16.47
2022-11-29T21:11:46.619Z,17.70
2022-11-29T21:14:15.031Z,22.75
2022-11-29T21:16:43.080Z,27.98
2022-11-29T21:19:18.031Z,20.75
2022-11-29T21:21:58.857Z,19.07
2022-11-29T21:24:38.725Z,18.73
2022-11-29T21:27:12.899Z,23.77
2022-11-29T21:29:42.657Z,19.00
2022-11-29T21:32:25.210Z,20.27
2022-11-29T21:34:54.543Z,19.43
2022-11-29T21:37:27.437Z,19.97
2022-11-29T21:39:56.076Z,16.60
2022-11-29T21:42:23.713Z,17.65
2022-11-29T21:44:51.317Z,19.33
2022-11-29T21:47:18.991Z,15.07
2022-11-29T21:49:47.122Z,19.90
2022-11-29T21:52:20.696Z,24.20
2022-11-29T21:54:51.403Z,23.13
2022-11-29T21:57:19.063Z,17.17
2022-11-29T21:59:47.192Z,22.87
2022-11-29T22:02:15.119Z,20.08
2022-11-29T22:04:43.126Z,17.90
2022-11-29T22:07:10.827Z,24.33
2022-11-29T22:09:38.430Z,23.43
2022-11-29T22:12:31.963Z,24.33
2022-11-29T22:14:55.343Z,28.13
2022-11-29T22:17:22.889Z,25.10
2022-11-29T22:19:50.418Z,24.10
2022-11-29T22:22:18.023Z,21.43
2022-11-29T22:24:46.119Z,27.37
2022-11-29T22:27:17.633Z,26.63
2022-11-29T22:29:45.176Z,23.27
2022-11-29T22:32:12.830Z,24.10
2022-11-29T22:34:40.387Z,28.60
2022-11-29T22:37:08.011Z,23.87
2022-11-29T22:39:35.635Z,33.00
2022-11-29T22:42:03.233Z,32.20
2022-11-29T22:44:32.252Z,29.07
2022-11-29T22:46:59.979Z,24.53
2022-11-29T22:49:27.596Z,29.50
2022-11-29T22:51:55.181Z,29.73
2022-11-29T22:54:22.773Z,36.90
2022-11-29T22:56:50.384Z,36.83
2022-11-29T22:59:17.896Z,35.63
2022-11-29T23:01:46.985Z,43.47
2022-11-29T23:04:14.778Z,29.00
2022-11-29T23:06:43.714Z,37.70
2022-11-29T23:09:15.958Z,30.90
2022-11-29T23:11:44.228Z,38.73
2022-11-29T23:14:12.002Z,32.95
2022-11-29T23:16:39.710Z,34.53
2022-11-29T23:19:08.731Z,41.93
2022-11-29T23:21:38.060Z,37.10
2022-11-29T23:24:06.185Z,32.87
2022-11-29T23:26:37.408Z,36.72
2022-11-29T23:29:05.755Z,33.87
2022-11-29T23:31:34.428Z,31.10
2022-11-29T23:36:31.481Z,33.27
2022-11-29T23:38:59.179Z,32.70
2022-11-29T23:41:26.928Z,46.70
2022-11-29T23:43:54.505Z,34.97
2022-11-29T23:46:23.695Z,34.37
2022-11-29T23:48:51.778Z,33.70
2022-11-29T23:51:20.437Z,35.83
2022-11-29T23:53:53.272Z,35.65
2022-11-29T23:56:21.665Z,37.77
2022-11-29T23:58:49.830Z,32.78
